Time;durP1;ratioP1;P1;durP2;ratioP2;P2;SDS_P1;SDS_P2;PMS_P1;PMS_P2;Temp;Humidity;BMP_temperature;BMP_pressure;BME280_temperature;BME280_humidity;BME280_pressure;Samples;Min_cycle;Max_cycle;Signal;HPM_P1;HPM_P2
2023/02/09 00:01:03;;;;;;;19.67;11.57;;;0.60;92.80;;;;;;5015303;28;20022;-64
2023/02/09 00:03:29;;;;;;;20.15;11.60;;;0.60;92.80;;;;;;5012750;28;20088;-64
2023/02/09 00:05:57;;;;;;;20.88;12.18;;;0.60;92.80;;;;;;5024187;28;20045;-65
2023/02/09 00:08:22;;;;;;;19.30;12.18;;;0.60;92.80;;;;;;5014492;28;20042;-64
2023/02/09 00:10:48;;;;;;;20.23;11.27;;;0.50;92.80;;;;;;5032713;28;20042;-64
2023/02/09 00:13:22;;;;;;;19.77;11.55;;;0.50;92.80;;;;;;5010780;28;20029;-64
2023/02/09 00:15:52;;;;;;;19.95;12.00;;;0.50;92.80;;;;;;5043994;28;20087;-64
2023/02/09 00:18:18;;;;;;;19.77;11.32;;;0.50;92.80;;;;;;5042323;28;20429;-64
2023/02/09 00:20:44;;;;;;;18.23;10.98;;;0.50;92.80;;;;;;5022383;28;20026;-64
2023/02/09 00:23:10;;;;;;;19.25;12.18;;;0.50;92.80;;;;;;5011231;28;20076;-64
2023/02/09 00:25:38;;;;;;;22.70;11.52;;;0.50;92.80;;;;;;5046734;28;20396;-64
2023/02/09 00:28:05;;;;;;;20.38;11.55;;;0.50;92.80;;;;;;5045520;28;20033;-64
2023/02/09 00:30:31;;;;;;;19.90;10.70;;;0.50;92.80;;;;;;5030053;28;20038;-64
2023/02/09 00:32:56;;;;;;;17.92;11.25;;;0.50;92.80;;;;;;5028102;28;20630;-65
2023/02/09 00:35:22;;;;;;;19.98;12.10;;;0.50;92.80;;;;;;5027171;28;20452;-64
2023/02/09 00:37:47;;;;;;;18.48;11.93;;;0.40;92.80;;;;;;5025706;28;20373;-64
2023/02/09 00:40:13;;;;;;;19.20;11.65;;;0.40;92.80;;;;;;5026378;28;20397;-64
2023/02/09 00:42:38;;;;;;;21.02;11.57;;;0.40;92.80;;;;;;5019237;28;20481;-64
2023/02/09 00:45:05;;;;;;;20.40;11.73;;;0.40;92.90;;;;;;5019574;28;20030;-64
2023/02/09 00:47:30;;;;;;;19.42;11.57;;;0.40;92.90;;;;;;5014335;28;20041;-64
2023/02/09 00:49:56;;;;;;;19.23;11.40;;;0.40;92.90;;;;;;5027818;28;20040;-64
2023/02/09 00:52:21;;;;;;;19.73;11.18;;;0.40;92.90;;;;;;5034257;28;20488;-64
2023/02/09 00:54:47;;;;;;;20.13;10.75;;;0.30;92.90;;;;;;5026710;28;20061;-64
2023/02/09 00:57:12;;;;;;;20.88;11.73;;;0.30;92.90;;;;;;5016745;28;20040;-64
2023/02/09 00:59:39;;;;;;;16.80;10.75;;;0.30;92.90;;;;;;5027146;28;20056;-64
2023/02/09 01:02:05;;;;;;;21.58;11.00;;;0.30;92.80;;;;;;5034415;28;20029;-64
2023/02/09 01:04:31;;;;;;;24.23;11.77;;;0.30;92.90;;;;;;5030292;28;20374;-64
2023/02/09 01:06:57;;;;;;;19.77;10.45;;;0.30;92.90;;;;;;5014083;28;20045;-64
2023/02/09 01:09:23;;;;;;;18.33;11.07;;;0.30;92.90;;;;;;5028534;28;20109;-64
2023/02/09 01:11:49;;;;;;;20.40;11.93;;;0.30;92.90;;;;;;5033151;28;20048;-64
2023/02/09 01:14:15;;;;;;;18.13;11.13;;;0.30;92.90;;;;;;5020034;28;20036;-64
2023/02/09 01:16:40;;;;;;;21.98;11.50;;;0.20;92.90;;;;;;5028699;28;20029;-64
2023/02/09 01:19:06;;;;;;;18.50;9.77;;;0.20;92.90;;;;;;5031201;28;20024;-64
2023/02/09 01:21:32;;;;;;;19.15;10.55;;;0.20;92.90;;;;;;5013564;28;20026;-65
2023/02/09 01:23:58;;;;;;;20.60;11.15;;;0.20;92.90;;;;;;5025497;28;20429;-65
2023/02/09 01:26:23;;;;;;;21.17;12.73;;;0.20;92.90;;;;;;5014014;28;20493;-65
2023/02/09 01:28:50;;;;;;;22.30;11.88;;;0.20;92.90;;;;;;5023825;28;20029;-65
2023/02/09 01:31:28;;;;;;;21.55;11.98;;;0.20;92.90;;;;;;5027361;28;20481;-65
2023/02/09 01:33:56;;;;;;;21.08;11.77;;;0.20;92.90;;;;;;5017055;28;20033;-65
2023/02/09 01:36:22;;;;;;;14.07;9.45;;;0.20;92.90;;;;;;5013481;28;20026;-65
2023/02/09 01:38:48;;;;;;;22.42;11.80;;;0.10;92.90;;;;;;5024349;28;20084;-65
2023/02/09 01:41:14;;;;;;;20.65;10.48;;;0.10;92.90;;;;;;5017371;28;20379;-65
2023/02/09 01:43:56;;;;;;;19.77;11.52;;;0.10;92.90;;;;;;5025086;28;20030;-65
2023/02/09 01:46:24;;;;;;;18.30;10.05;;;0.10;92.90;;;;;;5033341;28;20041;-65
2023/02/09 01:48:55;;;;;;;17.55;11.18;;;0.10;92.90;;;;;;5015297;28;20060;-65
2023/02/09 01:51:21;;;;;;;17.38;10.73;;;0.10;92.90;;;;;;5028710;28;20034;-65
2023/02/09 01:53:47;;;;;;;17.98;10.20;;;0.10;92.90;;;;;;5030250;28;20598;-64
2023/02/09 01:56:20;;;;;;;16.95;10.43;;;0.10;92.90;;;;;;5018925;28;20120;-64
2023/02/09 01:58:47;;;;;;;18.40;10.38;;;0.10;92.90;;;;;;5025757;28;20048;-64
2023/02/09 02:01:15;;;;;;;22.20;10.70;;;0.00;92.90;;;;;;5024044;28;20479;-64
2023/02/09 02:03:40;;;;;;;19.48;10.20;;;0.00;92.90;;;;;;5013021;28;20030;-64
2023/02/09 02:06:12;;;;;;;18.10;10.20;;;0.00;92.90;;;;;;5003638;28;20392;-64
2023/02/09 02:08:38;;;;;;;20.60;10.13;;;0.00;93.00;;;;;;5023852;28;20026;-64
2023/02/09 02:11:06;;;;;;;18.27;10.75;;;0.00;92.90;;;;;;5026562;28;20048;-64
2023/02/09 02:13:31;;;;;;;20.08;11.23;;;0.00;93.00;;;;;;5028353;28;20025;-64
2023/02/09 02:16:03;;;;;;;17.70;10.55;;;0.00;92.90;;;;;;5016936;28;20054;-64
2023/02/09 02:18:56;;;;;;;21.08;10.63;;;0.00;92.90;;;;;;5016244;28;20427;-64
2023/02/09 02:21:30;;;;;;;17.77;10.05;;;0.00;93.00;;;;;;5023531;28;20056;-64
2023/02/09 02:24:07;;;;;;;20.80;10.90;;;0.00;92.90;;;;;;5035799;28;20033;-63
2023/02/09 02:26:56;;;;;;;18.08;9.52;;;-0.10;92.90;;;;;;5022395;28;20536;-64
2023/02/09 02:29:29;;;;;;;19.23;10.82;;;-0.10;92.90;;;;;;5014825;28;20041;-64
2023/02/09 02:32:23;;;;;;;17.60;10.60;;;-0.10;92.90;;;;;;5017995;28;20030;-64
2023/02/09 02:34:58;;;;;;;16.70;10.57;;;-0.10;93.00;;;;;;5013240;28;20488;-64
2023/02/09 02:37:45;;;;;;;18.10;10.80;;;-0.10;92.90;;;;;;5033651;28;20124;-64
2023/02/09 02:40:21;;;;;;;17.55;9.63;;;-0.20;92.90;;;;;;5030764;28;20466;-64
2023/02/09 02:42:53;;;;;;;15.98;9.77;;;-0.20;92.90;;;;;;5014160;28;20108;-65
2023/02/09 02:45:43;;;;;;;19.75;9.68;;;-0.20;92.90;;;;;;5021318;28;20046;-64
2023/02/09 02:48:31;;;;;;;22.00;11.00;;;-0.30;92.90;;;;;;5012167;28;20037;-64
2023/02/09 02:50:59;;;;;;;18.55;9.68;;;-0.30;92.90;;;;;;5021367;28;20132;-64
2023/02/09 02:53:28;;;;;;;19.40;9.52;;;-0.30;92.90;;;;;;5023612;28;20021;-64
2023/02/09 02:55:59;;;;;;;16.45;9.40;;;-0.30;92.90;;;;;;5038254;28;20427;-64
2023/02/09 02:58:26;;;;;;;17.73;9.05;;;-0.30;93.00;;;;;;5021679;28;20020;-64
2023/02/09 03:00:55;;;;;;;18.33;9.65;;;-0.30;93.00;;;;;;5013641;28;20038;-64
2023/02/09 03:03:29;;;;;;;18.75;10.82;;;-0.40;93.00;;;;;;5017653;28;20053;-64
2023/02/09 03:05:55;;;;;;;18.17;10.68;;;-0.30;93.10;;;;;;5027801;28;20045;-64
2023/02/09 03:08:21;;;;;;;18.75;10.70;;;-0.40;93.00;;;;;;5028742;28;20030;-64
2023/02/09 03:10:47;;;;;;;20.88;11.15;;;-0.40;93.00;;;;;;5038900;28;20033;-64
2023/02/09 03:13:48;;;;;;;15.82;9.15;;;-0.40;93.00;;;;;;5016199;28;20055;-64
2023/02/09 03:16:19;;;;;;;19.00;9.70;;;-0.40;93.10;;;;;;4993854;28;20037;-64
2023/02/09 03:19:10;;;;;;;18.73;9.90;;;-0.40;93.10;;;;;;5032276;28;20389;-64
2023/02/09 03:21:38;;;;;;;18.33;9.75;;;-0.40;93.10;;;;;;5029068;28;20364;-64
2023/02/09 03:24:47;;;;;;;17.90;10.50;;;-0.40;93.10;;;;;;5033010;28;20033;-64
2023/02/09 03:27:32;;;;;;;17.40;9.70;;;-0.40;93.10;;;;;;4989736;28;20061;-64
2023/02/09 03:30:00;;;;;;;15.63;8.82;;;-0.40;93.00;;;;;;5042745;28;20048;-64
2023/02/09 03:32:26;;;;;;;17.20;9.35;;;-0.40;93.00;;;;;;5011332;28;20038;-65
2023/02/09 03:34:54;;;;;;;17.38;9.52;;;-0.40;93.10;;;;;;5020705;28;20037;-63
2023/02/09 03:37:21;;;;;;;16.55;10.05;;;-0.40;93.10;;;;;;5020506;28;20126;-63
2023/02/09 03:39:46;;;;;;;19.45;10.52;;;-0.40;93.10;;;;;;5014282;28;20029;-63
2023/02/09 03:42:12;;;;;;;16.38;9.98;;;-0.40;93.10;;;;;;5014135;28;20026;-63
2023/02/09 03:44:37;;;;;;;17.25;9.13;;;-0.40;93.10;;;;;;5044035;28;20369;-66
2023/02/09 03:47:06;;;;;;;18.40;9.63;;;-0.40;93.10;;;;;;5029950;28;20033;-66
2023/02/09 03:49:38;;;;;;;15.85;10.20;;;-0.40;93.30;;;;;;5021864;28;20049;-65
2023/02/09 03:52:04;;;;;;;18.20;10.52;;;-0.40;93.20;;;;;;5017261;28;20116;-68
2023/02/09 03:54:31;;;;;;;18.75;9.27;;;-0.40;93.10;;;;;;5022561;28;20041;-66
2023/02/09 03:56:58;;;;;;;17.55;10.00;;;-0.40;93.10;;;;;;5028413;28;20044;-66
2023/02/09 03:59:24;;;;;;;18.55;9.70;;;-0.40;93.10;;;;;;5028627;28;20046;-66
2023/02/09 04:01:52;;;;;;;14.05;8.82;;;-0.40;93.10;;;;;;5010518;28;20112;-66
2023/02/09 04:04:18;;;;;;;16.02;8.90;;;-0.40;93.10;;;;;;5045021;28;20039;-66
2023/02/09 04:06:44;;;;;;;17.85;9.38;;;-0.40;93.10;;;;;;5028694;28;20038;-66
2023/02/09 04:09:10;;;;;;;15.63;9.40;;;-0.40;93.10;;;;;;5025134;28;20532;-66
2023/02/09 04:11:36;;;;;;;19.08;10.88;;;-0.40;93.10;;;;;;5015262;28;20026;-66
2023/02/09 04:14:02;;;;;;;14.52;9.52;;;-0.50;93.10;;;;;;5027506;28;20470;-67
2023/02/09 04:16:27;;;;;;;16.05;10.02;;;-0.40;93.10;;;;;;5023104;28;20477;-67
2023/02/09 04:18:53;;;;;;;19.38;9.25;;;-0.40;93.10;;;;;;5034028;28;20053;-66
2023/02/09 04:21:19;;;;;;;13.32;8.43;;;-0.40;93.10;;;;;;5015800;28;20026;-66
2023/02/09 04:23:45;;;;;;;17.30;10.23;;;-0.40;93.10;;;;;;5027031;28;20668;-66
2023/02/09 04:26:11;;;;;;;16.83;9.40;;;-0.40;93.10;;;;;;5032041;28;20100;-67
2023/02/09 04:28:36;;;;;;;17.90;9.93;;;-0.40;93.10;;;;;;5028111;28;20030;-66
2023/02/09 04:31:02;;;;;;;18.88;10.27;;;-0.40;93.10;;;;;;5023124;28;20032;-65
2023/02/09 04:33:28;;;;;;;18.20;10.30;;;-0.40;93.10;;;;;;5029544;28;20044;-66
2023/02/09 04:35:54;;;;;;;17.55;10.07;;;-0.50;93.10;;;;;;5014901;28;20540;-65
2023/02/09 04:38:20;;;;;;;15.13;8.40;;;-0.40;93.10;;;;;;5027901;28;20548;-65
2023/02/09 04:40:47;;;;;;;18.70;10.02;;;-0.50;93.10;;;;;;5020048;28;20017;-66
2023/02/09 04:43:13;;;;;;;15.85;9.02;;;-0.50;93.10;;;;;;5025372;28;20144;-67
2023/02/09 04:45:40;;;;;;;15.82;9.63;;;-0.40;93.10;;;;;;5032796;28;20536;-66
2023/02/09 04:48:07;;;;;;;16.63;8.93;;;-0.50;93.10;;;;;;5038066;28;20033;-66
2023/02/09 04:50:33;;;;;;;18.55;10.30;;;-0.50;93.10;;;;;;5031203;28;20065;-66
2023/02/09 04:53:00;;;;;;;18.73;10.30;;;-0.50;93.10;;;;;;5020268;28;20532;-67
2023/02/09 04:55:25;;;;;;;16.85;9.85;;;-0.50;93.10;;;;;;5028041;28;20045;-66
2023/02/09 05:00:35;;;;;;;17.27;10.47;;;-0.50;93.00;;;;;;5014458;28;20060;-66
2023/02/09 05:03:01;;;;;;;20.02;9.60;;;-0.50;93.00;;;;;;5035289;28;20115;-66
2023/02/09 05:05:27;;;;;;;16.23;10.25;;;-0.50;93.00;;;;;;5022637;28;20087;-67
2023/02/09 05:07:52;;;;;;;17.42;9.45;;;-0.50;93.00;;;;;;5028682;28;20030;-66
2023/02/09 05:10:18;;;;;;;18.58;10.32;;;-0.50;93.00;;;;;;5025161;28;20037;-66
2023/02/09 05:12:43;;;;;;;18.77;10.52;;;-0.60;93.00;;;;;;5037321;28;20525;-66
2023/02/09 05:15:09;;;;;;;17.73;10.48;;;-0.60;93.00;;;;;;5019564;28;20528;-66
2023/02/09 05:17:35;;;;;;;20.48;10.38;;;-0.60;93.00;;;;;;5036440;28;20472;-66
2023/02/09 05:20:01;;;;;;;18.80;10.00;;;-0.60;93.00;;;;;;5022324;28;20124;-66
2023/02/09 05:22:26;;;;;;;16.63;9.85;;;-0.60;93.00;;;;;;5026595;28;20042;-66
2023/02/09 05:24:52;;;;;;;17.58;9.93;;;-0.70;93.00;;;;;;5032646;28;20056;-66
2023/02/09 05:27:18;;;;;;;18.13;9.95;;;-0.70;93.00;;;;;;5030740;28;20053;-65
2023/02/09 05:29:43;;;;;;;18.67;10.20;;;-0.70;93.00;;;;;;5017787;28;20218;-66
2023/02/09 05:32:09;;;;;;;16.20;10.07;;;-0.60;93.00;;;;;;5021482;28;20022;-65
2023/02/09 05:34:36;;;;;;;18.13;9.70;;;-0.70;93.00;;;;;;5029305;28;20108;-65
2023/02/09 05:37:02;;;;;;;18.48;9.63;;;-0.70;93.00;;;;;;5019913;28;20030;-65
2023/02/09 05:39:27;;;;;;;18.35;10.73;;;-0.70;93.00;;;;;;5018903;28;20385;-66
2023/02/09 05:44:37;;;;;;;18.48;10.45;;;-0.60;93.00;;;;;;5027092;28;20033;-65
2023/02/09 05:47:03;;;;;;;16.42;9.85;;;-0.60;93.00;;;;;;5022465;28;20046;-65
2023/02/09 05:49:28;;;;;;;19.77;10.80;;;-0.60;93.00;;;;;;5013939;28;20502;-65
2023/02/09 05:51:54;;;;;;;19.48;9.73;;;-0.60;93.00;;;;;;5033999;28;20377;-65
2023/02/09 05:54:20;;;;;;;17.83;9.80;;;-0.60;93.00;;;;;;5040758;28;20032;-65
2023/02/09 05:56:45;;;;;;;16.83;9.80;;;-0.60;93.00;;;;;;5020086;28;20088;-65
2023/02/09 05:59:11;;;;;;;18.42;11.02;;;-0.60;92.90;;;;;;5015237;28;20057;-65
2023/02/09 06:01:37;;;;;;;19.95;10.50;;;-0.60;92.90;;;;;;5024118;28;20113;-65
2023/02/09 06:04:02;;;;;;;17.73;10.50;;;-0.60;92.90;;;;;;5018661;28;20040;-66
2023/02/09 06:06:28;;;;;;;20.48;10.95;;;-0.60;92.90;;;;;;5017518;28;20042;-66
2023/02/09 06:08:54;;;;;;;18.95;10.40;;;-0.60;92.90;;;;;;5019920;28;20449;-67
2023/02/09 06:11:19;;;;;;;16.63;10.07;;;-0.60;92.90;;;;;;5011656;28;20034;-67
2023/02/09 06:13:45;;;;;;;18.20;10.18;;;-0.60;92.90;;;;;;5016289;28;20052;-67
2023/02/09 06:16:10;;;;;;;18.90;10.73;;;-0.60;92.90;;;;;;5028635;28;20056;-67
2023/02/09 06:18:37;;;;;;;15.80;9.73;;;-0.60;92.90;;;;;;5012032;28;20018;-67
2023/02/09 06:21:04;;;;;;;17.15;9.60;;;-0.60;92.90;;;;;;5025856;28;20031;-67
2023/02/09 06:23:30;;;;;;;18.00;9.90;;;-0.60;92.90;;;;;;5048334;28;20047;-67
2023/02/09 06:25:56;;;;;;;17.10;9.43;;;-0.70;92.90;;;;;;5030738;28;20037;-66
2023/02/09 06:28:22;;;;;;;20.25;10.05;;;-0.70;92.90;;;;;;5021856;28;20030;-67
2023/02/09 06:30:52;;;;;;;16.30;10.07;;;-0.70;92.90;;;;;;5023574;28;20045;-66
2023/02/09 06:33:18;;;;;;;17.27;9.55;;;-0.70;92.90;;;;;;5028280;28;20030;-66
2023/02/09 06:35:45;;;;;;;17.67;10.30;;;-0.70;92.90;;;;;;5010726;28;20038;-66
2023/02/09 06:38:11;;;;;;;22.90;10.48;;;-0.60;92.90;;;;;;5028718;28;20424;-66
2023/02/09 06:40:36;;;;;;;19.48;10.68;;;-0.60;92.90;;;;;;5046677;28;20035;-66
2023/02/09 06:43:02;;;;;;;15.18;9.15;;;-0.60;92.90;;;;;;5028586;28;20029;-66
2023/02/09 06:45:27;;;;;;;18.25;9.90;;;-0.70;92.90;;;;;;5025569;28;20059;-67
2023/02/09 06:47:53;;;;;;;19.35;10.18;;;-0.60;92.90;;;;;;5030031;28;20037;-66
2023/02/09 06:50:19;;;;;;;15.90;10.20;;;-0.60;92.90;;;;;;5023716;28;20041;-66
2023/02/09 06:52:45;;;;;;;18.00;10.63;;;-0.60;92.90;;;;;;5019734;28;20055;-67
2023/02/09 06:55:11;;;;;;;18.20;11.43;;;-0.60;92.90;;;;;;5030974;28;20030;-66
2023/02/09 06:57:37;;;;;;;15.38;8.82;;;-0.60;92.90;;;;;;5032299;28;20025;-66
2023/02/09 07:00:04;;;;;;;19.92;10.10;;;-0.60;92.90;;;;;;5027972;28;20068;-66
2023/02/09 07:02:30;;;;;;;18.95;10.95;;;-0.60;92.90;;;;;;5014389;28;20048;-66
2023/02/09 07:04:56;;;;;;;19.05;10.20;;;-0.60;92.90;;;;;;5021061;28;20396;-66
2023/02/09 07:07:22;;;;;;;18.13;10.27;;;-0.50;92.90;;;;;;5030259;28;20042;-66
2023/02/09 07:09:48;;;;;;;18.58;10.55;;;-0.50;92.90;;;;;;5023808;28;20037;-66
2023/02/09 07:12:13;;;;;;;18.65;11.07;;;-0.50;92.90;;;;;;5024555;28;20033;-67
2023/02/09 07:14:39;;;;;;;18.83;10.77;;;-0.50;93.10;;;;;;5011975;28;20120;-66
2023/02/09 07:17:04;;;;;;;20.75;10.68;;;-0.50;92.90;;;;;;5020310;28;20105;-66
2023/02/09 07:19:31;;;;;;;18.73;10.80;;;-0.40;92.90;;;;;;5030028;28;20036;-66
2023/02/09 07:21:56;;;;;;;17.85;10.52;;;-0.40;92.90;;;;;;5037821;28;20055;-66
2023/02/09 07:24:23;;;;;;;19.77;11.63;;;-0.40;92.90;;;;;;5026850;28;20120;-67
2023/02/09 07:26:49;;;;;;;20.75;10.85;;;-0.40;93.10;;;;;;5017166;28;20037;-67
2023/02/09 07:29:15;;;;;;;20.70;11.75;;;-0.30;92.90;;;;;;5020029;28;20030;-66
2023/02/09 07:31:41;;;;;;;20.13;11.57;;;-0.30;92.90;;;;;;5021049;28;20029;-67
2023/02/09 07:34:07;;;;;;;24.67;11.52;;;-0.30;92.80;;;;;;5013006;28;20022;-68
2023/02/09 07:36:32;;;;;;;22.02;12.13;;;-0.30;92.80;;;;;;5015719;28;20501;-68
2023/02/09 07:38:58;;;;;;;22.42;11.57;;;-0.30;92.80;;;;;;5014505;28;20030;-67
2023/02/09 07:41:24;;;;;;;19.23;12.18;;;-0.30;92.80;;;;;;5024942;28;20100;-68
2023/02/09 07:43:51;;;;;;;21.58;11.80;;;-0.30;92.90;;;;;;5015254;28;20026;-68
2023/02/09 07:46:19;;;;;;;21.45;11.77;;;-0.20;92.90;;;;;;5025136;28;20141;-68
2023/02/09 07:48:46;;;;;;;21.33;11.93;;;-0.20;92.80;;;;;;5019828;28;20037;-68
2023/02/09 07:51:18;;;;;;;20.45;11.95;;;-0.20;92.80;;;;;;5024789;28;20397;-69
2023/02/09 07:53:44;;;;;;;18.15;11.32;;;-0.20;92.90;;;;;;5018417;28;20029;-68
2023/02/09 07:56:10;;;;;;;23.25;11.75;;;-0.20;92.80;;;;;;5031427;28;20032;-69
2023/02/09 07:58:36;;;;;;;16.58;10.27;;;-0.10;92.80;;;;;;5024659;28;20022;-69
2023/02/09 08:01:07;;;;;;;19.85;12.02;;;-0.10;92.80;;;;;;5014617;28;20484;-69
2023/02/09 08:03:36;;;;;;;19.38;11.90;;;-0.10;92.80;;;;;;5021560;28;20041;-70
2023/02/09 08:06:28;;;;;;;19.20;11.43;;;-0.10;92.80;;;;;;5014788;28;20399;-70
2023/02/09 08:08:54;;;;;;;17.40;11.43;;;0.00;92.80;;;;;;5024392;28;20036;-69
2023/02/09 08:11:31;;;;;;;20.25;11.80;;;0.10;92.70;;;;;;5017070;28;20029;-69
2023/02/09 08:14:01;;;;;;;19.15;11.63;;;0.10;92.70;;;;;;5029510;28;20427;-71
2023/02/09 08:16:30;;;;;;;16.92;10.77;;;0.10;92.70;;;;;;5001554;28;20030;-69
2023/02/09 08:19:02;;;;;;;17.40;10.27;;;0.20;92.70;;;;;;5021864;28;20116;-70
2023/02/09 08:21:30;;;;;;;20.92;10.88;;;0.20;92.70;;;;;;5014997;28;20034;-69
2023/02/09 08:23:58;;;;;;;20.33;11.45;;;0.30;92.70;;;;;;5018787;28;20037;-69
2023/02/09 08:26:24;;;;;;;17.98;10.68;;;0.30;92.70;;;;;;5028103;28;20046;-69
2023/02/09 08:28:52;;;;;;;22.40;10.98;;;0.40;92.70;;;;;;5016453;28;20030;-69
2023/02/09 08:31:19;;;;;;;22.48;10.77;;;0.40;92.60;;;;;;5039815;28;20115;-70
2023/02/09 08:33:47;;;;;;;18.90;10.57;;;0.50;92.60;;;;;;5023762;28;20029;-70
2023/02/09 08:36:14;;;;;;;17.58;10.82;;;0.50;92.50;;;;;;5014489;28;20507;-70
2023/02/09 08:38:40;;;;;;;19.42;11.63;;;0.50;92.50;;;;;;5025262;28;20453;-70
2023/02/09 08:41:08;;;;;;;18.27;10.75;;;0.60;92.50;;;;;;5013452;28;20028;-70
2023/02/09 08:43:35;;;;;;;19.80;10.80;;;0.60;92.50;;;;;;5008668;28;20445;-70
2023/02/09 08:46:09;;;;;;;21.73;11.27;;;0.60;92.40;;;;;;5015503;28;20121;-70
2023/02/09 08:48:37;;;;;;;17.38;9.60;;;0.70;92.40;;;;;;5018423;28;20104;-70
2023/02/09 08:51:04;;;;;;;17.20;10.48;;;0.80;92.30;;;;;;5011304;28;20075;-70
2023/02/09 08:53:31;;;;;;;19.38;11.13;;;0.80;92.30;;;;;;5018183;28;20036;-70
2023/02/09 08:55:56;;;;;;;17.67;10.52;;;0.80;92.30;;;;;;5025427;28;20026;-71
2023/02/09 08:58:23;;;;;;;19.02;12.10;;;0.90;92.30;;;;;;5029697;28;20419;-70
2023/02/09 09:00:49;;;;;;;17.10;9.73;;;0.90;92.20;;;;;;5036628;28;20038;-70
2023/02/09 09:03:14;;;;;;;19.65;10.35;;;1.00;92.20;;;;;;5031819;28;20117;-70
2023/02/09 09:05:40;;;;;;;16.67;10.27;;;1.10;92.20;;;;;;5027510;28;20421;-70
2023/02/09 09:08:06;;;;;;;16.92;8.93;;;1.10;92.20;;;;;;5022732;28;20116;-70
2023/02/09 09:10:31;;;;;;;20.48;10.13;;;1.20;92.20;;;;;;5023407;28;20064;-70
2023/02/09 09:12:57;;;;;;;20.40;10.88;;;1.20;92.10;;;;;;5023091;28;20047;-70
2023/02/09 09:15:23;;;;;;;17.30;10.48;;;1.30;92.10;;;;;;5030576;28;20030;-70
2023/02/09 09:17:48;;;;;;;16.75;10.52;;;1.30;92.10;;;;;;5025933;28;20083;-69
2023/02/09 09:20:14;;;;;;;19.98;10.90;;;1.40;92.10;;;;;;5033008;28;20037;-70
2023/02/09 09:22:40;;;;;;;17.55;9.82;;;1.50;92.00;;;;;;5031711;28;20206;-69
2023/02/09 09:25:06;;;;;;;18.40;9.57;;;1.50;92.00;;;;;;5013435;28;20025;-69
2023/02/09 09:27:33;;;;;;;18.17;10.27;;;1.60;92.00;;;;;;5010322;28;20038;-68
2023/02/09 09:29:59;;;;;;;23.55;11.07;;;1.70;91.90;;;;;;5015963;28;20091;-68
2023/02/09 09:32:25;;;;;;;17.33;10.30;;;1.70;91.90;;;;;;5022790;28;20029;-69
2023/02/09 09:34:56;;;;;;;19.15;10.10;;;1.80;91.80;;;;;;5028047;28;20030;-69
2023/02/09 09:37:23;;;;;;;19.25;10.55;;;1.90;91.80;;;;;;5023099;28;20026;-68
2023/02/09 09:39:48;;;;;;;18.10;10.48;;;1.90;91.80;;;;;;5025720;28;20435;-68
2023/02/09 09:42:23;;;;;;;17.85;10.23;;;2.00;91.70;;;;;;5022371;28;20113;-66
2023/02/09 09:44:48;;;;;;;17.23;10.07;;;2.00;91.60;;;;;;5017693;28;20401;-67
2023/02/09 09:47:20;;;;;;;16.73;10.55;;;2.10;91.70;;;;;;5019589;28;20049;-69
2023/02/09 09:49:47;;;;;;;20.70;11.00;;;2.10;91.60;;;;;;5032860;28;20025;-69
2023/02/09 09:52:43;;;;;;;19.13;11.15;;;2.10;91.60;;;;;;5029908;28;20039;-68
2023/02/09 09:55:19;;;;;;;19.77;10.68;;;2.20;91.50;;;;;;5006124;28;20397;-70
2023/02/09 09:57:45;;;;;;;14.00;9.55;;;2.30;91.50;;;;;;5017353;28;20108;-68
2023/02/09 10:00:26;;;;;;;16.70;10.25;;;2.30;91.50;;;;;;5025740;28;20199;-68
2023/02/09 10:02:52;;;;;;;15.55;9.35;;;2.40;91.40;;;;;;5029562;28;20465;-69
2023/02/09 10:05:28;;;;;;;16.63;8.93;;;2.40;91.30;;;;;;5016270;28;20319;-70
2023/02/09 10:08:00;;;;;;;16.23;9.07;;;2.40;91.10;;;;;;5024634;28;20045;-70
2023/02/09 10:10:45;;;;;;;17.23;10.57;;;2.50;91.10;;;;;;5016275;28;20504;-70
2023/02/09 10:13:23;;;;;;;14.05;9.07;;;2.50;91.10;;;;;;5001320;28;20099;-70
2023/02/09 10:15:56;;;;;;;15.88;9.93;;;2.50;91.00;;;;;;5018225;28;20041;-70
2023/02/09 10:18:25;;;;;;;14.90;8.93;;;2.60;91.00;;;;;;5014594;28;20026;-70
2023/02/09 10:20:55;;;;;;;13.88;8.93;;;2.60;90.90;;;;;;5012968;28;20038;-70
2023/02/09 10:23:27;;;;;;;18.20;9.50;;;2.70;90.90;;;;;;5017775;28;20030;-69
2023/02/09 10:26:08;;;;;;;16.00;9.15;;;2.70;90.70;;;;;;5018184;28;20450;-69
2023/02/09 10:28:46;;;;;;;13.95;8.25;;;2.80;90.60;;;;;;5017662;28;20064;-68
2023/02/09 10:31:23;;;;;;;14.35;9.02;;;2.80;90.60;;;;;;5019654;28;20040;-68
2023/02/09 10:34:12;;;;;;;15.98;9.77;;;2.90;90.60;;;;;;5020187;28;20029;-68
2023/02/09 10:36:50;;;;;;;15.73;9.82;;;2.90;90.50;;;;;;5009238;28;20326;-68
2023/02/09 10:39:22;;;;;;;17.13;8.48;;;3.00;90.40;;;;;;5018064;28;20040;-68
2023/02/09 10:41:51;;;;;;;14.02;8.25;;;3.00;90.50;;;;;;5014368;28;20113;-67
2023/02/09 10:44:25;;;;;;;16.05;8.80;;;3.10;90.40;;;;;;5000842;28;20030;-68
2023/02/09 10:47:10;;;;;;;16.02;9.68;;;3.20;90.30;;;;;;5020869;28;20040;-68
2023/02/09 10:49:37;;;;;;;;;;;3.30;90.30;;;;;;5024828;28;20036;-69
2023/02/09 10:52:12;;;;;;;14.75;8.38;;;3.30;90.30;;;;;;5031269;28;19909;-67
2023/02/09 10:54:48;;;;;;;17.88;9.52;;;3.40;90.30;;;;;;5013925;28;20132;-68
2023/02/09 10:57:21;;;;;;;14.25;8.30;;;3.40;90.10;;;;;;5032252;28;20358;-68
2023/02/09 10:59:55;;;;;;;16.25;9.18;;;3.50;90.10;;;;;;5027089;28;20049;-68
2023/02/09 11:02:51;;;;;;;15.43;8.73;;;3.50;90.00;;;;;;5009825;28;20037;-68
2023/02/09 11:05:20;;;;;;;12.63;8.05;;;3.60;89.60;;;;;;5022405;28;20626;-68
2023/02/09 11:08:13;;;;;;;13.95;9.75;;;3.60;89.60;;;;;;5020277;28;20040;-68
2023/02/09 11:10:44;;;;;;;22.17;8.85;;;3.70;89.60;;;;;;5025348;28;20037;-68
2023/02/09 11:13:20;;;;;;;13.57;7.90;;;3.70;89.40;;;;;;5019845;28;20029;-67
2023/02/09 11:16:11;;;;;;;12.93;7.95;;;3.80;89.30;;;;;;5024894;28;20025;-69
2023/02/09 11:18:40;;;;;;;12.32;7.75;;;3.80;89.20;;;;;;5022701;28;20033;-69
2023/02/09 11:21:17;;;;;;;11.85;8.25;;;3.80;88.90;;;;;;5014074;28;20525;-69
2023/02/09 11:23:59;;;;;;;14.65;8.27;;;3.90;88.70;;;;;;5021483;28;20040;-69
2023/02/09 11:26:48;;;;;;;13.75;7.97;;;3.90;88.40;;;;;;5030254;28;20381;-67
2023/02/09 11:29:29;;;;;;;14.27;8.77;;;4.00;88.20;;;;;;5019822;28;20381;-68
2023/02/09 11:32:09;;;;;;;10.40;7.15;;;4.00;88.20;;;;;;5023177;28;20026;-68
2023/02/09 11:35:00;;;;;;;14.88;8.68;;;4.10;87.80;;;;;;5020173;28;20477;-67
2023/02/09 11:37:50;;;;;;;14.93;7.85;;;4.00;87.50;;;;;;5010838;28;20033;-68
2023/02/09 11:40:21;;;;;;;13.68;8.10;;;4.10;87.40;;;;;;5027986;28;20381;-68
2023/02/09 11:42:54;;;;;;;13.95;8.30;;;4.20;87.40;;;;;;5011778;28;20022;-68
2023/02/09 11:45:29;;;;;;;13.20;8.18;;;4.20;87.30;;;;;;5028282;28;20120;-68
2023/02/09 11:48:01;;;;;;;;;;;4.30;87.50;;;;;;5032086;28;20045;-68
2023/02/09 11:50:54;;;;;;;13.75;7.47;;;4.30;87.40;;;;;;5023834;28;20376;-69
2023/02/09 11:53:25;;;;;;;13.75;7.90;;;4.30;86.60;;;;;;5026229;28;20040;-69
2023/02/09 11:55:56;;;;;;;14.30;8.48;;;4.30;86.60;;;;;;5014731;28;20108;-68
2023/02/09 11:58:41;;;;;;;13.77;7.50;;;4.40;86.60;;;;;;5006173;28;20061;-69
2023/02/09 12:01:23;;;;;;;11.45;8.02;;;4.50;86.40;;;;;;4992548;28;20132;-69
2023/02/09 12:04:10;;;;;;;11.70;7.20;;;4.50;86.30;;;;;;5000134;28;20493;-69
2023/02/09 12:06:41;;;;;;;11.75;7.47;;;4.60;86.00;;;;;;4996406;28;20043;-69
2023/02/09 12:09:35;;;;;;;15.40;8.40;;;4.60;86.00;;;;;;4999838;28;20348;-69
2023/02/09 12:12:06;;;;;;;14.13;7.95;;;4.60;85.80;;;;;;5010751;28;20030;-69
2023/02/09 12:14:58;;;;;;;14.05;8.48;;;4.70;86.00;;;;;;4999017;28;20378;-69
2023/02/09 12:17:52;;;;;;;11.85;7.72;;;4.80;85.90;;;;;;4992491;28;20471;-69
2023/02/09 12:20:36;;;;;;;14.00;7.85;;;4.80;86.00;;;;;;4999382;28;20121;-68
2023/02/09 12:23:09;;;;;;;13.70;8.55;;;4.90;85.70;;;;;;4994219;28;20018;-68
2023/02/09 12:25:35;;;;;;;13.55;8.40;;;4.90;85.60;;;;;;5002186;28;20034;-68
2023/02/09 12:28:15;;;;;;;15.82;8.30;;;5.00;85.50;;;;;;5007319;28;20037;-70
2023/02/09 12:30:41;;;;;;;11.60;7.60;;;5.10;85.20;;;;;;4995734;28;20092;-69
2023/02/09 12:33:27;;;;;;;15.75;8.73;;;5.10;85.20;;;;;;4998327;28;20452;-68
2023/02/09 12:36:01;;;;;;;11.20;7.45;;;5.10;85.00;;;;;;4999256;28;20121;-68
2023/02/09 12:38:48;;;;;;;10.95;7.53;;;5.20;85.00;;;;;;5006911;28;20050;-69
2023/02/09 12:41:22;;;;;;;15.82;9.00;;;5.30;84.80;;;;;;5011941;28;20117;-68
2023/02/09 12:43:49;;;;;;;15.93;7.93;;;5.20;84.60;;;;;;5004230;28;20044;-68
2023/02/09 12:46:29;;;;;;;12.70;8.55;;;5.30;84.60;;;;;;5011511;28;20038;-68
2023/02/09 12:49:10;;;;;;;12.63;8.05;;;5.30;84.50;;;;;;5004722;28;20033;-68
2023/02/09 12:51:46;;;;;;;14.63;9.25;;;5.40;84.30;;;;;;4994387;28;20041;-68
2023/02/09 12:54:49;;;;;;;12.75;7.47;;;5.40;84.20;;;;;;5001716;28;20053;-68
2023/02/09 12:57:14;;;;;;;11.25;6.95;;;5.50;84.10;;;;;;5004710;28;20541;-68
2023/02/09 12:59:41;;;;;;;12.20;7.45;;;5.50;83.90;;;;;;5010571;28;20140;-68